sensor_id;sensor_type;location;lat;lon;timestamp;P1;durP1;ratioP1;P2;durP2;ratioP2
71104;SDS011;58760;48.716;8.962;2022-11-18T00:00:53;2.35;;;0.60;;
71104;SDS011;58760;48.716;8.962;2022-11-18T00:03:18;2.00;;;0.35;;
71104;SDS011;58760;48.716;8.962;2022-11-18T00:05:53;0.68;;;0.50;;
71104;SDS011;58760;48.716;8.962;2022-11-18T00:08:20;1.77;;;0.50;;
71104;SDS011;58760;48.716;8.962;2022-11-18T00:10:46;0.55;;;0.28;;
71104;SDS011;58760;48.716;8.962;2022-11-18T00:13:11;1.35;;;0.40;;
71104;SDS011;58760;48.716;8.962;2022-11-18T00:15:59;1.40;;;0.52;;
71104;SDS011;58760;48.716;8.962;2022-11-18T00:18:26;1.40;;;0.38;;
71104;SDS011;58760;48.716;8.962;2022-11-18T00:20:51;2.45;;;0.70;;
71104;SDS011;58760;48.716;8.962;2022-11-18T00:23:17;0.90;;;0.60;;
71104;SDS011;58760;48.716;8.962;2022-11-18T00:25:43;1.38;;;0.50;;
71104;SDS011;58760;48.716;8.962;2022-11-18T00:28:08;0.45;;;0.40;;
71104;SDS011;58760;48.716;8.962;2022-11-18T00:30:33;1.33;;;0.50;;
71104;SDS011;58760;48.716;8.962;2022-11-18T00:32:59;1.00;;;0.50;;
71104;SDS011;58760;48.716;8.962;2022-11-18T00:35:24;0.68;;;0.30;;
71104;SDS011;58760;48.716;8.962;2022-11-18T00:37:49;1.63;;;0.68;;
71104;SDS011;58760;48.716;8.962;2022-11-18T00:40:15;1.20;;;0.60;;
71104;SDS011;58760;48.716;8.962;2022-11-18T00:42:40;2.20;;;0.50;;
71104;SDS011;58760;48.716;8.962;2022-11-18T00:45:15;2.85;;;0.50;;
71104;SDS011;58760;48.716;8.962;2022-11-18T00:47:40;0.35;;;0.30;;
71104;SDS011;58760;48.716;8.962;2022-11-18T00:50:06;2.05;;;0.40;;
71104;SDS011;58760;48.716;8.962;2022-11-18T00:52:32;1.10;;;0.40;;
71104;SDS011;58760;48.716;8.962;2022-11-18T00:54:57;1.77;;;0.40;;
71104;SDS011;58760;48.716;8.962;2022-11-18T00:57:23;1.25;;;0.40;;
71104;SDS011;58760;48.716;8.962;2022-11-18T00:59:48;1.58;;;0.47;;
71104;SDS011;58760;48.716;8.962;2022-11-18T01:02:13;2.05;;;0.47;;
71104;SDS011;58760;48.716;8.962;2022-11-18T01:04:39;1.13;;;0.57;;
71104;SDS011;58760;48.716;8.962;2022-11-18T01:07:04;1.33;;;0.70;;
71104;SDS011;58760;48.716;8.962;2022-11-18T01:09:30;0.85;;;0.57;;
71104;SDS011;58760;48.716;8.962;2022-11-18T01:11:55;0.80;;;0.55;;
71104;SDS011;58760;48.716;8.962;2022-11-18T01:14:39;0.80;;;0.60;;
71104;SDS011;58760;48.716;8.962;2022-11-18T01:17:05;1.30;;;0.65;;
71104;SDS011;58760;48.716;8.962;2022-11-18T01:19:31;1.77;;;0.52;;
71104;SDS011;58760;48.716;8.962;2022-11-18T01:21:56;1.65;;;0.65;;
71104;SDS011;58760;48.716;8.962;2022-11-18T01:24:26;1.33;;;0.70;;
71104;SDS011;58760;48.716;8.962;2022-11-18T01:26:55;2.00;;;0.80;;
71104;SDS011;58760;48.716;8.962;2022-11-18T01:29:21;0.80;;;0.50;;
71104;SDS011;58760;48.716;8.962;2022-11-18T01:31:46;1.42;;;0.60;;
71104;SDS011;58760;48.716;8.962;2022-11-18T01:34:12;1.40;;;0.52;;
71104;SDS011;58760;48.716;8.962;2022-11-18T01:36:37;1.55;;;0.55;;
71104;SDS011;58760;48.716;8.962;2022-11-18T01:39:02;0.38;;;0.30;;
71104;SDS011;58760;48.716;8.962;2022-11-18T01:41:28;1.08;;;0.38;;
71104;SDS011;58760;48.716;8.962;2022-11-18T01:43:58;0.93;;;0.30;;
71104;SDS011;58760;48.716;8.962;2022-11-18T01:46:30;0.75;;;0.50;;
71104;SDS011;58760;48.716;8.962;2022-11-18T01:48:59;0.82;;;0.38;;
71104;SDS011;58760;48.716;8.962;2022-11-18T01:54:51;0.60;;;0.47;;
71104;SDS011;58760;48.716;8.962;2022-11-18T01:57:21;1.08;;;0.40;;
71104;SDS011;58760;48.716;8.962;2022-11-18T01:59:51;0.70;;;0.30;;
71104;SDS011;58760;48.716;8.962;2022-11-18T02:02:21;1.40;;;0.50;;
71104;SDS011;58760;48.716;8.962;2022-11-18T02:04:48;2.15;;;0.47;;
71104;SDS011;58760;48.716;8.962;2022-11-18T02:07:16;1.40;;;0.40;;
71104;SDS011;58760;48.716;8.962;2022-11-18T02:09:43;1.10;;;0.30;;
71104;SDS011;58760;48.716;8.962;2022-11-18T02:12:09;0.38;;;0.38;;
71104;SDS011;58760;48.716;8.962;2022-11-18T02:14:36;0.60;;;0.50;;
71104;SDS011;58760;48.716;8.962;2022-11-18T02:22:15;0.63;;;0.47;;
71104;SDS011;58760;48.716;8.962;2022-11-18T02:27:40;1.70;;;0.60;;
71104;SDS011;58760;48.716;8.962;2022-11-18T02:30:11;1.77;;;0.80;;
71104;SDS011;58760;48.716;8.962;2022-11-18T02:32:45;1.02;;;0.60;;
71104;SDS011;58760;48.716;8.962;2022-11-18T02:35:32;5.35;;;0.85;;
71104;SDS011;58760;48.716;8.962;2022-11-18T02:40:43;0.90;;;0.57;;
71104;SDS011;58760;48.716;8.962;2022-11-18T02:45:45;1.73;;;0.68;;
71104;SDS011;58760;48.716;8.962;2022-11-18T02:48:15;2.63;;;0.80;;
71104;SDS011;58760;48.716;8.962;2022-11-18T02:50:44;3.90;;;1.10;;
71104;SDS011;58760;48.716;8.962;2022-11-18T02:53:13;1.70;;;0.70;;
71104;SDS011;58760;48.716;8.962;2022-11-18T02:55:42;1.33;;;0.60;;
71104;SDS011;58760;48.716;8.962;2022-11-18T02:58:10;2.88;;;0.60;;
71104;SDS011;58760;48.716;8.962;2022-11-18T03:00:38;3.42;;;0.50;;
71104;SDS011;58760;48.716;8.962;2022-11-18T03:05:53;2.60;;;0.55;;
71104;SDS011;58760;48.716;8.962;2022-11-18T03:08:22;3.00;;;0.47;;
71104;SDS011;58760;48.716;8.962;2022-11-18T03:13:47;2.35;;;0.43;;
71104;SDS011;58760;48.716;8.962;2022-11-18T03:16:17;3.03;;;0.45;;
71104;SDS011;58760;48.716;8.962;2022-11-18T03:18:51;1.17;;;0.40;;
71104;SDS011;58760;48.716;8.962;2022-11-18T03:21:58;1.48;;;0.40;;
71104;SDS011;58760;48.716;8.962;2022-11-18T03:24:44;1.85;;;0.40;;
71104;SDS011;58760;48.716;8.962;2022-11-18T03:27:18;0.90;;;0.30;;
71104;SDS011;58760;48.716;8.962;2022-11-18T03:29:55;1.85;;;0.40;;
71104;SDS011;58760;48.716;8.962;2022-11-18T03:32:26;0.73;;;0.30;;
71104;SDS011;58760;48.716;8.962;2022-11-18T03:34:59;2.28;;;0.30;;
71104;SDS011;58760;48.716;8.962;2022-11-18T03:37:29;2.28;;;0.60;;
71104;SDS011;58760;48.716;8.962;2022-11-18T03:40:31;0.80;;;0.38;;
71104;SDS011;58760;48.716;8.962;2022-11-18T03:42:53;0.47;;;0.40;;
71104;SDS011;58760;48.716;8.962;2022-11-18T03:45:25;2.15;;;0.60;;
71104;SDS011;58760;48.716;8.962;2022-11-18T03:48:07;2.22;;;0.60;;
71104;SDS011;58760;48.716;8.962;2022-11-18T03:50:42;2.00;;;0.70;;
71104;SDS011;58760;48.716;8.962;2022-11-18T03:53:12;0.95;;;0.50;;
71104;SDS011;58760;48.716;8.962;2022-11-18T03:55:42;1.15;;;0.40;;
71104;SDS011;58760;48.716;8.962;2022-11-18T03:58:17;2.53;;;0.35;;
71104;SDS011;58760;48.716;8.962;2022-11-18T04:00:49;1.17;;;0.43;;
71104;SDS011;58760;48.716;8.962;2022-11-18T04:03:20;6.50;;;0.70;;
71104;SDS011;58760;48.716;8.962;2022-11-18T04:05:45;1.50;;;0.40;;
71104;SDS011;58760;48.716;8.962;2022-11-18T04:08:18;0.38;;;0.30;;
71104;SDS011;58760;48.716;8.962;2022-11-18T04:10:59;3.83;;;0.47;;
71104;SDS011;58760;48.716;8.962;2022-11-18T04:13:31;0.45;;;0.20;;
71104;SDS011;58760;48.716;8.962;2022-11-18T04:15:59;0.32;;;0.20;;
71104;SDS011;58760;48.716;8.962;2022-11-18T04:18:25;1.48;;;0.22;;
71104;SDS011;58760;48.716;8.962;2022-11-18T04:20:51;0.20;;;0.10;;
71104;SDS011;58760;48.716;8.962;2022-11-18T04:23:16;0.60;;;0.10;;
71104;SDS011;58760;48.716;8.962;2022-11-18T04:25:42;1.23;;;0.20;;
71104;SDS011;58760;48.716;8.962;2022-11-18T04:28:07;0.20;;;0.20;;
71104;SDS011;58760;48.716;8.962;2022-11-18T04:30:32;1.48;;;0.13;;
71104;SDS011;58760;48.716;8.962;2022-11-18T04:32:58;0.25;;;0.20;;
71104;SDS011;58760;48.716;8.962;2022-11-18T04:35:24;0.80;;;0.20;;
71104;SDS011;58760;48.716;8.962;2022-11-18T04:37:50;1.42;;;0.20;;
71104;SDS011;58760;48.716;8.962;2022-11-18T04:40:15;0.25;;;0.10;;
71104;SDS011;58760;48.716;8.962;2022-11-18T04:42:41;0.10;;;0.10;;
71104;SDS011;58760;48.716;8.962;2022-11-18T04:45:06;0.10;;;0.10;;
71104;SDS011;58760;48.716;8.962;2022-11-18T04:47:32;0.93;;;0.20;;
71104;SDS011;58760;48.716;8.962;2022-11-18T04:49:58;0.75;;;0.10;;
71104;SDS011;58760;48.716;8.962;2022-11-18T04:52:23;0.35;;;0.08;;
71104;SDS011;58760;48.716;8.962;2022-11-18T04:54:48;2.63;;;0.13;;
71104;SDS011;58760;48.716;8.962;2022-11-18T04:57:14;2.83;;;0.30;;
71104;SDS011;58760;48.716;8.962;2022-11-18T04:59:39;0.13;;;0.13;;
71104;SDS011;58760;48.716;8.962;2022-11-18T05:02:05;0.30;;;0.20;;
71104;SDS011;58760;48.716;8.962;2022-11-18T05:04:31;0.35;;;0.20;;
71104;SDS011;58760;48.716;8.962;2022-11-18T05:06:57;0.20;;;0.20;;
71104;SDS011;58760;48.716;8.962;2022-11-18T05:09:24;1.45;;;0.40;;
71104;SDS011;58760;48.716;8.962;2022-11-18T05:11:50;0.80;;;0.22;;
71104;SDS011;58760;48.716;8.962;2022-11-18T05:14:35;0.82;;;0.17;;
71104;SDS011;58760;48.716;8.962;2022-11-18T05:17:01;0.30;;;0.08;;
71104;SDS011;58760;48.716;8.962;2022-11-18T05:19:29;1.73;;;0.30;;
71104;SDS011;58760;48.716;8.962;2022-11-18T05:21:55;0.00;;;0.00;;
71104;SDS011;58760;48.716;8.962;2022-11-18T05:24:20;0.00;;;0.00;;
71104;SDS011;58760;48.716;8.962;2022-11-18T05:26:48;0.70;;;0.17;;
71104;SDS011;58760;48.716;8.962;2022-11-18T05:29:14;0.90;;;0.10;;
71104;SDS011;58760;48.716;8.962;2022-11-18T05:31:39;1.13;;;0.22;;
71104;SDS011;58760;48.716;8.962;2022-11-18T05:34:05;0.65;;;0.40;;
71104;SDS011;58760;48.716;8.962;2022-11-18T05:36:30;0.60;;;0.30;;
71104;SDS011;58760;48.716;8.962;2022-11-18T05:38:59;1.10;;;0.30;;
71104;SDS011;58760;48.716;8.962;2022-11-18T05:41:24;1.23;;;0.20;;
71104;SDS011;58760;48.716;8.962;2022-11-18T05:44:08;0.70;;;0.20;;
71104;SDS011;58760;48.716;8.962;2022-11-18T05:46:34;0.77;;;0.30;;
71104;SDS011;58760;48.716;8.962;2022-11-18T05:48:59;0.85;;;0.40;;
71104;SDS011;58760;48.716;8.962;2022-11-18T05:51:24;0.77;;;0.20;;
71104;SDS011;58760;48.716;8.962;2022-11-18T05:53:50;0.93;;;0.30;;
71104;SDS011;58760;48.716;8.962;2022-11-18T05:56:18;0.90;;;0.20;;
71104;SDS011;58760;48.716;8.962;2022-11-18T05:58:46;0.28;;;0.20;;
71104;SDS011;58760;48.716;8.962;2022-11-18T06:01:13;2.22;;;0.30;;
71104;SDS011;58760;48.716;8.962;2022-11-18T06:03:42;0.75;;;0.10;;
71104;SDS011;58760;48.716;8.962;2022-11-18T06:06:08;0.45;;;0.20;;
71104;SDS011;58760;48.716;8.962;2022-11-18T06:08:39;0.40;;;0.20;;
71104;SDS011;58760;48.716;8.962;2022-11-18T06:11:12;2.30;;;0.28;;
71104;SDS011;58760;48.716;8.962;2022-11-18T06:13:42;1.75;;;0.30;;
71104;SDS011;58760;48.716;8.962;2022-11-18T06:18:41;1.20;;;0.20;;
71104;SDS011;58760;48.716;8.962;2022-11-18T06:21:06;0.30;;;0.20;;
71104;SDS011;58760;48.716;8.962;2022-11-18T06:23:36;0.00;;;0.00;;
71104;SDS011;58760;48.716;8.962;2022-11-18T06:26:03;0.50;;;0.20;;
71104;SDS011;58760;48.716;8.962;2022-11-18T06:28:31;1.85;;;0.32;;
71104;SDS011;58760;48.716;8.962;2022-11-18T06:30:57;1.77;;;0.20;;
71104;SDS011;58760;48.716;8.962;2022-11-18T06:33:23;0.75;;;0.25;;
71104;SDS011;58760;48.716;8.962;2022-11-18T06:35:48;0.43;;;0.20;;
71104;SDS011;58760;48.716;8.962;2022-11-18T06:38:13;0.65;;;0.30;;
71104;SDS011;58760;48.716;8.962;2022-11-18T06:40:39;1.35;;;0.30;;
71104;SDS011;58760;48.716;8.962;2022-11-18T06:43:09;1.08;;;0.20;;
71104;SDS011;58760;48.716;8.962;2022-11-18T06:45:57;1.08;;;0.10;;
71104;SDS011;58760;48.716;8.962;2022-11-18T06:48:42;0.35;;;0.20;;
71104;SDS011;58760;48.716;8.962;2022-11-18T06:51:07;1.70;;;0.38;;
71104;SDS011;58760;48.716;8.962;2022-11-18T06:53:33;0.85;;;0.20;;
71104;SDS011;58760;48.716;8.962;2022-11-18T06:56:06;0.73;;;0.30;;
71104;SDS011;58760;48.716;8.962;2022-11-18T06:58:33;0.60;;;0.30;;
71104;SDS011;58760;48.716;8.962;2022-11-18T07:01:07;0.95;;;0.20;;
71104;SDS011;58760;48.716;8.962;2022-11-18T07:03:45;1.00;;;0.30;;
71104;SDS011;58760;48.716;8.962;2022-11-18T07:06:12;6.47;;;0.68;;
71104;SDS011;58760;48.716;8.962;2022-11-18T07:08:40;10.98;;;1.20;;
71104;SDS011;58760;48.716;8.962;2022-11-18T07:11:07;9.88;;;0.90;;
71104;SDS011;58760;48.716;8.962;2022-11-18T07:13:34;8.05;;;0.90;;
71104;SDS011;58760;48.716;8.962;2022-11-18T07:16:01;5.15;;;0.90;;
71104;SDS011;58760;48.716;8.962;2022-11-18T07:18:29;4.70;;;0.65;;
71104;SDS011;58760;48.716;8.962;2022-11-18T07:20:55;4.30;;;0.90;;
71104;SDS011;58760;48.716;8.962;2022-11-18T07:23:21;3.95;;;0.57;;
71104;SDS011;58760;48.716;8.962;2022-11-18T07:25:46;4.05;;;0.50;;
71104;SDS011;58760;48.716;8.962;2022-11-18T07:28:12;0.25;;;0.22;;
71104;SDS011;58760;48.716;8.962;2022-11-18T07:30:37;1.60;;;0.35;;
71104;SDS011;58760;48.716;8.962;2022-11-18T07:33:02;0.73;;;0.30;;
71104;SDS011;58760;48.716;8.962;2022-11-18T07:35:28;2.20;;;0.50;;
71104;SDS011;58760;48.716;8.962;2022-11-18T07:37:53;0.82;;;0.40;;
71104;SDS011;58760;48.716;8.962;2022-11-18T07:40:18;1.65;;;0.35;;
71104;SDS011;58760;48.716;8.962;2022-11-18T07:42:44;2.13;;;0.43;;
71104;SDS011;58760;48.716;8.962;2022-11-18T07:45:10;1.50;;;0.45;;
71104;SDS011;58760;48.716;8.962;2022-11-18T07:47:36;0.45;;;0.22;;
71104;SDS011;58760;48.716;8.962;2022-11-18T07:50:01;0.35;;;0.30;;
71104;SDS011;58760;48.716;8.962;2022-11-18T07:52:27;1.25;;;0.30;;
71104;SDS011;58760;48.716;8.962;2022-11-18T07:54:53;0.57;;;0.30;;
71104;SDS011;58760;48.716;8.962;2022-11-18T07:57:18;1.77;;;0.63;;
71104;SDS011;58760;48.716;8.962;2022-11-18T07:59:43;1.15;;;0.43;;
71104;SDS011;58760;48.716;8.962;2022-11-18T08:02:10;2.47;;;0.30;;
71104;SDS011;58760;48.716;8.962;2022-11-18T08:04:36;0.70;;;0.43;;
71104;SDS011;58760;48.716;8.962;2022-11-18T08:07:01;2.70;;;0.40;;
71104;SDS011;58760;48.716;8.962;2022-11-18T08:09:27;0.82;;;0.25;;
71104;SDS011;58760;48.716;8.962;2022-11-18T08:11:52;1.63;;;0.40;;
71104;SDS011;58760;48.716;8.962;2022-11-18T08:14:17;0.68;;;0.45;;
71104;SDS011;58760;48.716;8.962;2022-11-18T08:16:43;1.13;;;0.40;;
71104;SDS011;58760;48.716;8.962;2022-11-18T08:19:08;1.65;;;0.32;;
71104;SDS011;58760;48.716;8.962;2022-11-18T08:21:33;1.23;;;0.30;;
71104;SDS011;58760;48.716;8.962;2022-11-18T08:23:59;0.82;;;0.30;;
71104;SDS011;58760;48.716;8.962;2022-11-18T08:26:24;1.17;;;0.70;;
71104;SDS011;58760;48.716;8.962;2022-11-18T08:28:50;0.90;;;0.50;;
71104;SDS011;58760;48.716;8.962;2022-11-18T08:31:18;0.20;;;0.20;;
71104;SDS011;58760;48.716;8.962;2022-11-18T08:33:54;0.90;;;0.30;;
71104;SDS011;58760;48.716;8.962;2022-11-18T08:36:21;0.60;;;0.40;;
71104;SDS011;58760;48.716;8.962;2022-11-18T08:38:48;1.35;;;0.40;;
71104;SDS011;58760;48.716;8.962;2022-11-18T08:41:14;1.65;;;0.50;;
71104;SDS011;58760;48.716;8.962;2022-11-18T08:43:42;1.13;;;0.28;;
71104;SDS011;58760;48.716;8.962;2022-11-18T08:46:07;0.20;;;0.20;;
71104;SDS011;58760;48.716;8.962;2022-11-18T08:48:33;1.45;;;0.50;;
71104;SDS011;58760;48.716;8.962;2022-11-18T08:50:58;3.22;;;0.90;;
71104;SDS011;58760;48.716;8.962;2022-11-18T08:53:24;4.47;;;0.47;;
71104;SDS011;58760;48.716;8.962;2022-11-18T08:55:56;3.35;;;0.55;;
71104;SDS011;58760;48.716;8.962;2022-11-18T08:58:23;1.27;;;0.38;;
71104;SDS011;58760;48.716;8.962;2022-11-18T09:00:49;2.75;;;0.68;;
71104;SDS011;58760;48.716;8.962;2022-11-18T09:03:14;2.35;;;0.50;;
71104;SDS011;58760;48.716;8.962;2022-11-18T09:05:39;5.00;;;0.70;;
71104;SDS011;58760;48.716;8.962;2022-11-18T09:08:05;5.25;;;0.70;;
71104;SDS011;58760;48.716;8.962;2022-11-18T09:10:30;4.15;;;0.70;;
71104;SDS011;58760;48.716;8.962;2022-11-18T09:12:56;2.45;;;0.60;;
71104;SDS011;58760;48.716;8.962;2022-11-18T09:15:22;3.80;;;0.93;;
71104;SDS011;58760;48.716;8.962;2022-11-18T09:17:48;4.40;;;0.60;;
71104;SDS011;58760;48.716;8.962;2022-11-18T09:20:15;2.45;;;0.75;;
71104;SDS011;58760;48.716;8.962;2022-11-18T09:22:41;5.30;;;0.70;;
71104;SDS011;58760;48.716;8.962;2022-11-18T09:25:07;1.75;;;0.60;;
71104;SDS011;58760;48.716;8.962;2022-11-18T09:27:32;1.40;;;0.50;;
71104;SDS011;58760;48.716;8.962;2022-11-18T09:29:58;1.30;;;0.55;;
71104;SDS011;58760;48.716;8.962;2022-11-18T09:32:23;2.40;;;0.73;;
71104;SDS011;58760;48.716;8.962;2022-11-18T09:34:49;2.05;;;0.60;;
71104;SDS011;58760;48.716;8.962;2022-11-18T09:37:15;1.10;;;0.55;;
71104;SDS011;58760;48.716;8.962;2022-11-18T09:39:40;2.00;;;0.65;;
71104;SDS011;58760;48.716;8.962;2022-11-18T09:45:26;2.47;;;0.88;;
71104;SDS011;58760;48.716;8.962;2022-11-18T09:47:54;2.65;;;0.63;;
71104;SDS011;58760;48.716;8.962;2022-11-18T09:50:22;1.33;;;0.60;;
71104;SDS011;58760;48.716;8.962;2022-11-18T09:55:19;1.80;;;0.47;;
71104;SDS011;58760;48.716;8.962;2022-11-18T09:57:46;1.40;;;0.52;;
71104;SDS011;58760;48.716;8.962;2022-11-18T10:05:16;2.75;;;0.70;;
71104;SDS011;58760;48.716;8.962;2022-11-18T10:10:20;2.97;;;1.08;;
71104;SDS011;58760;48.716;8.962;2022-11-18T10:12:54;2.53;;;0.75;;
71104;SDS011;58760;48.716;8.962;2022-11-18T10:15:33;10.82;;;1.63;;
71104;SDS011;58760;48.716;8.962;2022-11-18T10:26:05;3.38;;;0.85;;
71104;SDS011;58760;48.716;8.962;2022-11-18T10:28:30;2.22;;;0.73;;
71104;SDS011;58760;48.716;8.962;2022-11-18T10:31:08;1.70;;;0.70;;
71104;SDS011;58760;48.716;8.962;2022-11-18T10:33:36;1.38;;;0.60;;
71104;SDS011;58760;48.716;8.962;2022-11-18T10:38:58;1.25;;;0.80;;
71104;SDS011;58760;48.716;8.962;2022-11-18T10:41:30;4.47;;;1.38;;
71104;SDS011;58760;48.716;8.962;2022-11-18T10:47:13;3.58;;;0.65;;
71104;SDS011;58760;48.716;8.962;2022-11-18T10:49:43;1.80;;;0.80;;
71104;SDS011;58760;48.716;8.962;2022-11-18T10:52:09;2.55;;;0.77;;
71104;SDS011;58760;48.716;8.962;2022-11-18T10:54:37;3.28;;;0.75;;
71104;SDS011;58760;48.716;8.962;2022-11-18T10:57:11;2.95;;;0.75;;
71104;SDS011;58760;48.716;8.962;2022-11-18T11:02:15;1.38;;;0.60;;
71104;SDS011;58760;48.716;8.962;2022-11-18T11:04:44;1.73;;;0.65;;
71104;SDS011;58760;48.716;8.962;2022-11-18T11:07:30;1.63;;;0.43;;
71104;SDS011;58760;48.716;8.962;2022-11-18T11:10:19;1.90;;;0.57;;
71104;SDS011;58760;48.716;8.962;2022-11-18T11:13:08;2.78;;;0.40;;
71104;SDS011;58760;48.716;8.962;2022-11-18T11:15:43;1.95;;;0.60;;
71104;SDS011;58760;48.716;8.962;2022-11-18T11:18:31;0.63;;;0.50;;
71104;SDS011;58760;48.716;8.962;2022-11-18T11:23:38;1.23;;;0.40;;
71104;SDS011;58760;48.716;8.962;2022-11-18T11:34:28;1.75;;;0.50;;
71104;SDS011;58760;48.716;8.962;2022-11-18T11:40:02;2.17;;;0.70;;
71104;SDS011;58760;48.716;8.962;2022-11-18T11:51:21;1.38;;;0.40;;
71104;SDS011;58760;48.716;8.962;2022-11-18T12:00:01;2.80;;;0.55;;
71104;SDS011;58760;48.716;8.962;2022-11-18T12:02:35;3.17;;;0.68;;
71104;SDS011;58760;48.716;8.962;2022-11-18T12:05:24;0.82;;;0.50;;
71104;SDS011;58760;48.716;8.962;2022-11-18T12:07:59;5.10;;;1.30;;
71104;SDS011;58760;48.716;8.962;2022-11-18T12:19:15;6.57;;;1.40;;
71104;SDS011;58760;48.716;8.962;2022-11-18T12:26:46;4.90;;;1.20;;
71104;SDS011;58760;48.716;8.962;2022-11-18T12:31:47;3.58;;;1.10;;
71104;SDS011;58760;48.716;8.962;2022-11-18T12:34:18;5.00;;;1.48;;
71104;SDS011;58760;48.716;8.962;2022-11-18T12:41:52;2.25;;;0.82;;
71104;SDS011;58760;48.716;8.962;2022-11-18T12:44:40;2.08;;;0.70;;
71104;SDS011;58760;48.716;8.962;2022-11-18T12:47:09;3.00;;;0.95;;
71104;SDS011;58760;48.716;8.962;2022-11-18T12:52:03;3.17;;;0.85;;
71104;SDS011;58760;48.716;8.962;2022-11-18T12:54:43;2.00;;;0.88;;
71104;SDS011;58760;48.716;8.962;2022-11-18T12:57:14;3.10;;;0.60;;
71104;SDS011;58760;48.716;8.962;2022-11-18T12:59:46;5.20;;;0.80;;
71104;SDS011;58760;48.716;8.962;2022-11-18T13:04:37;2.25;;;0.85;;
71104;SDS011;58760;48.716;8.962;2022-11-18T13:07:04;2.45;;;0.73;;
71104;SDS011;58760;48.716;8.962;2022-11-18T13:09:54;2.47;;;0.60;;
71104;SDS011;58760;48.716;8.962;2022-11-18T13:12:20;1.85;;;0.63;;
71104;SDS011;58760;48.716;8.962;2022-11-18T13:14:49;3.33;;;0.73;;
71104;SDS011;58760;48.716;8.962;2022-11-18T13:17:34;1.08;;;0.73;;
71104;SDS011;58760;48.716;8.962;2022-11-18T13:23:03;2.72;;;0.47;;
71104;SDS011;58760;48.716;8.962;2022-11-18T13:26:10;2.75;;;0.57;;
71104;SDS011;58760;48.716;8.962;2022-11-18T13:28:43;1.98;;;0.47;;
71104;SDS011;58760;48.716;8.962;2022-11-18T13:33:50;2.92;;;0.80;;
71104;SDS011;58760;48.716;8.962;2022-11-18T13:36:18;2.55;;;0.50;;
71104;SDS011;58760;48.716;8.962;2022-11-18T13:38:57;2.28;;;0.77;;
71104;SDS011;58760;48.716;8.962;2022-11-18T13:41:25;1.70;;;0.60;;
71104;SDS011;58760;48.716;8.962;2022-11-18T13:47:03;3.20;;;1.10;;
71104;SDS011;58760;48.716;8.962;2022-11-18T13:52:15;0.95;;;0.50;;
71104;SDS011;58760;48.716;8.962;2022-11-18T13:54:45;2.20;;;0.80;;
71104;SDS011;58760;48.716;8.962;2022-11-18T13:57:17;2.28;;;0.75;;
71104;SDS011;58760;48.716;8.962;2022-11-18T13:59:46;3.30;;;0.90;;
71104;SDS011;58760;48.716;8.962;2022-11-18T14:02:14;4.80;;;0.60;;
71104;SDS011;58760;48.716;8.962;2022-11-18T14:04:46;6.68;;;0.90;;
71104;SDS011;58760;48.716;8.962;2022-11-18T14:07:27;4.20;;;0.80;;
71104;SDS011;58760;48.716;8.962;2022-11-18T14:10:02;2.33;;;0.65;;
71104;SDS011;58760;48.716;8.962;2022-11-18T14:12:30;3.42;;;0.82;;
71104;SDS011;58760;48.716;8.962;2022-11-18T14:17:37;4.57;;;0.85;;
71104;SDS011;58760;48.716;8.962;2022-11-18T14:20:14;2.58;;;0.60;;
71104;SDS011;58760;48.716;8.962;2022-11-18T14:22:41;4.03;;;0.85;;
71104;SDS011;58760;48.716;8.962;2022-11-18T14:25:24;4.28;;;1.23;;
71104;SDS011;58760;48.716;8.962;2022-11-18T14:28:08;4.38;;;0.82;;
71104;SDS011;58760;48.716;8.962;2022-11-18T14:30:56;1.58;;;0.70;;
71104;SDS011;58760;48.716;8.962;2022-11-18T14:33:35;2.38;;;0.70;;
71104;SDS011;58760;48.716;8.962;2022-11-18T14:36:07;2.10;;;0.80;;
71104;SDS011;58760;48.716;8.962;2022-11-18T14:38:44;2.47;;;0.90;;
71104;SDS011;58760;48.716;8.962;2022-11-18T14:41:12;2.33;;;0.82;;
71104;SDS011;58760;48.716;8.962;2022-11-18T14:44:01;3.45;;;1.08;;
71104;SDS011;58760;48.716;8.962;2022-11-18T14:46:27;3.10;;;1.00;;
71104;SDS011;58760;48.716;8.962;2022-11-18T14:48:53;2.50;;;0.65;;
71104;SDS011;58760;48.716;8.962;2022-11-18T14:51:18;3.38;;;1.00;;
71104;SDS011;58760;48.716;8.962;2022-11-18T14:53:44;1.60;;;0.77;;
71104;SDS011;58760;48.716;8.962;2022-11-18T14:56:13;3.35;;;0.90;;
71104;SDS011;58760;48.716;8.962;2022-11-18T14:58:45;3.70;;;1.20;;
71104;SDS011;58760;48.716;8.962;2022-11-18T15:01:11;4.60;;;0.90;;
71104;SDS011;58760;48.716;8.962;2022-11-18T15:03:37;3.28;;;1.00;;
71104;SDS011;58760;48.716;8.962;2022-11-18T15:06:02;4.82;;;1.15;;
71104;SDS011;58760;48.716;8.962;2022-11-18T15:08:28;3.40;;;1.10;;
71104;SDS011;58760;48.716;8.962;2022-11-18T15:10:53;5.03;;;1.10;;
71104;SDS011;58760;48.716;8.962;2022-11-18T15:13:19;6.20;;;1.10;;
71104;SDS011;58760;48.716;8.962;2022-11-18T15:15:44;2.53;;;0.82;;
71104;SDS011;58760;48.716;8.962;2022-11-18T15:18:09;3.40;;;0.98;;
71104;SDS011;58760;48.716;8.962;2022-11-18T15:20:35;2.72;;;0.90;;
71104;SDS011;58760;48.716;8.962;2022-11-18T15:23:00;5.32;;;1.05;;
71104;SDS011;58760;48.716;8.962;2022-11-18T15:25:25;6.13;;;0.88;;
71104;SDS011;58760;48.716;8.962;2022-11-18T15:27:51;2.97;;;1.13;;
71104;SDS011;58760;48.716;8.962;2022-11-18T15:30:16;2.88;;;1.10;;
71104;SDS011;58760;48.716;8.962;2022-11-18T15:32:41;7.47;;;1.10;;
71104;SDS011;58760;48.716;8.962;2022-11-18T15:35:08;5.78;;;1.00;;
71104;SDS011;58760;48.716;8.962;2022-11-18T15:37:35;3.97;;;0.90;;
71104;SDS011;58760;48.716;8.962;2022-11-18T15:40:00;4.80;;;1.17;;
71104;SDS011;58760;48.716;8.962;2022-11-18T15:42:26;4.90;;;1.60;;
71104;SDS011;58760;48.716;8.962;2022-11-18T15:44:51;2.92;;;1.10;;
71104;SDS011;58760;48.716;8.962;2022-11-18T15:47:16;3.95;;;1.10;;
71104;SDS011;58760;48.716;8.962;2022-11-18T15:49:42;2.92;;;1.00;;
71104;SDS011;58760;48.716;8.962;2022-11-18T15:52:09;3.63;;;1.02;;
71104;SDS011;58760;48.716;8.962;2022-11-18T15:54:35;3.35;;;1.00;;
71104;SDS011;58760;48.716;8.962;2022-11-18T15:57:01;3.72;;;1.00;;
71104;SDS011;58760;48.716;8.962;2022-11-18T15:59:27;7.82;;;1.50;;
71104;SDS011;58760;48.716;8.962;2022-11-18T16:01:53;3.65;;;1.17;;
71104;SDS011;58760;48.716;8.962;2022-11-18T16:04:19;3.83;;;0.98;;
71104;SDS011;58760;48.716;8.962;2022-11-18T16:06:45;4.95;;;1.35;;
71104;SDS011;58760;48.716;8.962;2022-11-18T16:09:11;3.63;;;1.10;;
71104;SDS011;58760;48.716;8.962;2022-11-18T16:14:21;9.55;;;1.40;;
71104;SDS011;58760;48.716;8.962;2022-11-18T16:16:48;3.85;;;1.10;;
71104;SDS011;58760;48.716;8.962;2022-11-18T16:19:15;6.55;;;1.33;;
71104;SDS011;58760;48.716;8.962;2022-11-18T16:21:43;5.45;;;1.20;;
71104;SDS011;58760;48.716;8.962;2022-11-18T16:24:14;4.60;;;1.52;;
71104;SDS011;58760;48.716;8.962;2022-11-18T16:26:41;8.43;;;1.65;;
71104;SDS011;58760;48.716;8.962;2022-11-18T16:29:06;4.40;;;1.17;;
71104;SDS011;58760;48.716;8.962;2022-11-18T16:31:32;3.97;;;1.30;;
71104;SDS011;58760;48.716;8.962;2022-11-18T16:34:07;3.45;;;1.00;;
71104;SDS011;58760;48.716;8.962;2022-11-18T16:36:41;6.40;;;1.50;;
71104;SDS011;58760;48.716;8.962;2022-11-18T16:39:09;5.53;;;1.30;;
71104;SDS011;58760;48.716;8.962;2022-11-18T16:41:39;5.18;;;1.35;;
71104;SDS011;58760;48.716;8.962;2022-11-18T16:44:10;3.35;;;1.17;;
71104;SDS011;58760;48.716;8.962;2022-11-18T16:46:40;4.72;;;1.38;;
71104;SDS011;58760;48.716;8.962;2022-11-18T16:49:13;4.93;;;1.27;;
71104;SDS011;58760;48.716;8.962;2022-11-18T16:51:41;5.13;;;1.38;;
71104;SDS011;58760;48.716;8.962;2022-11-18T16:54:15;4.30;;;1.70;;
71104;SDS011;58760;48.716;8.962;2022-11-18T16:56:48;9.68;;;3.63;;
71104;SDS011;58760;48.716;8.962;2022-11-18T16:59:21;8.43;;;2.88;;
71104;SDS011;58760;48.716;8.962;2022-11-18T17:04:14;9.95;;;4.00;;
71104;SDS011;58760;48.716;8.962;2022-11-18T17:06:40;4.95;;;1.50;;
71104;SDS011;58760;48.716;8.962;2022-11-18T17:09:06;5.50;;;1.67;;